createdAt,value
2016-06-09T00:00:53.298Z,25.38
2016-06-09T00:01:53.302Z,25.38
2016-06-09T00:02:53.336Z,25.38
2016-06-09T00:03:53.370Z,25.38
2016-06-09T00:04:53.342Z,25.38
2016-06-09T00:05:53.345Z,25.41
2016-06-09T00:06:53.364Z,25.38
2016-06-09T00:07:53.367Z,25.34
2016-06-09T00:08:53.371Z,25.37
2016-06-09T00:09:53.388Z,25.38
2016-06-09T00:10:53.392Z,25.34
2016-06-09T00:11:53.410Z,25.33
2016-06-09T00:12:53.429Z,25.39
2016-06-09T00:13:53.447Z,25.34
2016-06-09T00:14:53.450Z,25.33
2016-06-09T00:15:53.469Z,25.37
2016-06-09T00:16:53.472Z,25.34
2016-06-09T00:17:53.491Z,25.37
2016-06-09T00:18:54.743Z,25.38
2016-06-09T00:19:53.497Z,25.33
2016-06-09T00:20:53.516Z,25.32
2016-06-09T00:21:53.519Z,25.29
2016-06-09T00:22:53.538Z,25.32
2016-06-09T00:23:53.542Z,25.34
2016-06-09T00:24:53.559Z,25.38
2016-06-09T00:25:53.562Z,25.37
2016-06-09T00:26:53.426Z,25.33
2016-06-09T00:27:53.601Z,25.34
2016-06-09T00:28:53.604Z,25.32
2016-06-09T00:29:53.606Z,25.34
2016-06-09T00:30:53.625Z,25.33
2016-06-09T00:31:53.644Z,25.33
2016-06-09T00:32:53.647Z,25.33
2016-06-09T00:33:53.697Z,25.3
2016-06-09T00:34:53.668Z,25.34
2016-06-09T00:35:53.672Z,25.38
2016-06-09T00:36:53.690Z,25.29
2016-06-09T00:37:53.693Z,25.33
2016-06-09T00:38:53.728Z,25.33
2016-06-09T00:39:53.730Z,25.3
2016-06-09T00:40:53.733Z,25.38
2016-06-09T00:41:53.597Z,25.33
2016-06-09T00:42:53.756Z,25.32
2016-06-09T00:43:53.789Z,25.29
2016-06-09T00:44:53.778Z,25.24
2016-06-09T00:45:53.780Z,25.3
2016-06-09T00:46:53.799Z,25.3
2016-06-09T00:47:53.818Z,25.33
2016-06-09T00:48:54.383Z,25.32
2016-06-09T00:49:53.839Z,25.3
2016-06-09T00:50:53.842Z,25.34
2016-06-09T00:51:53.862Z,25.27
2016-06-09T00:52:53.864Z,25.26
2016-06-09T00:53:53.899Z,25.29
2016-06-09T00:54:53.887Z,25.38
2016-06-09T00:55:53.904Z,25.24
2016-06-09T00:56:53.751Z,25.3
2016-06-09T00:57:53.927Z,25.27
2016-06-09T00:58:53.946Z,25.3
2016-06-09T00:59:53.964Z,25.29
2016-06-09T01:00:53.952Z,25.37
2016-06-09T01:01:53.970Z,25.3
2016-06-09T01:02:53.973Z,25.26
2016-06-09T01:03:54.461Z,25.26
2016-06-09T01:04:53.854Z,25.3
2016-06-09T01:05:53.858Z,25.27
2016-06-09T01:06:53.876Z,25.32
2016-06-09T01:07:54.035Z,25.26
2016-06-09T01:08:54.054Z,25.29
2016-06-09T01:09:54.058Z,25.27
2016-06-09T01:10:54.076Z,25.29
2016-06-09T01:11:54.079Z,25.29
2016-06-09T01:12:53.942Z,25.33
2016-06-09T01:13:54.101Z,25.26
2016-06-09T01:14:54.120Z,25.23
2016-06-09T01:15:54.123Z,25.24
2016-06-09T01:16:54.141Z,25.26
2016-06-09T01:17:54.144Z,25.3
2016-06-09T01:18:54.023Z,25.24
2016-06-09T01:19:54.166Z,25.27
2016-06-09T01:20:54.184Z,25.26
2016-06-09T01:21:54.204Z,25.29
2016-06-09T01:22:54.207Z,25.24
2016-06-09T01:23:54.225Z,25.24
2016-06-09T01:24:54.213Z,25.26
2016-06-09T01:25:54.232Z,25.2
2016-06-09T01:26:54.250Z,25.22
2016-06-09T01:27:54.252Z,25.23
2016-06-09T01:28:54.272Z,25.24
2016-06-09T01:29:54.276Z,25.22
2016-06-09T01:30:54.294Z,25.23
2016-06-09T01:31:54.297Z,25.17
2016-06-09T01:32:54.315Z,25.29
2016-06-09T01:33:54.757Z,25.2
2016-06-09T01:34:54.337Z,25.22
2016-06-09T01:35:54.355Z,25.22
2016-06-09T01:36:54.359Z,25.15
2016-06-09T01:37:54.361Z,25.14
2016-06-09T01:38:54.381Z,25.23
2016-06-09T01:39:54.400Z,25.17
2016-06-09T01:40:54.418Z,25.17
2016-06-09T01:41:54.421Z,25.2
2016-06-09T01:42:54.424Z,25.2
2016-06-09T01:43:54.427Z,25.2
2016-06-09T01:44:54.446Z,25.22
2016-06-09T01:45:54.466Z,25.19
2016-06-09T01:46:54.499Z,25.15
2016-06-09T01:47:54.487Z,25.19
2016-06-09T01:48:54.803Z,25.17
2016-06-09T01:49:54.509Z,25.22
2016-06-09T01:50:54.527Z,25.15
2016-06-09T01:51:54.515Z,25.22
2016-06-09T01:52:54.533Z,25.17
2016-06-09T01:53:54.552Z,25.22
2016-06-09T01:54:54.554Z,25.17
2016-06-09T01:55:54.574Z,25.11
2016-06-09T01:56:54.577Z,25.15
2016-06-09T01:57:54.595Z,25.17
2016-06-09T01:58:54.598Z,25.2
2016-06-09T01:59:54.462Z,25.17
2016-06-09T02:00:54.620Z,25.19
2016-06-09T02:01:54.623Z,25.2
2016-06-09T02:02:54.643Z,25.19
2016-06-09T02:03:54.661Z,25.19
2016-06-09T02:04:54.680Z,25.17
2016-06-09T02:05:54.683Z,25.2
2016-06-09T02:06:54.686Z,25.11
2016-06-09T02:07:54.704Z,25.19
2016-06-09T02:08:54.707Z,25.14
2016-06-09T02:09:54.726Z,25.19
2016-06-09T02:10:54.729Z,25.17
2016-06-09T02:11:54.748Z,25.11
2016-06-09T02:12:54.751Z,25.14
2016-06-09T02:13:54.770Z,25.17
2016-06-09T02:14:54.772Z,25.24
2016-06-09T02:15:54.636Z,25.14
2016-06-09T02:16:54.795Z,25.11
2016-06-09T02:17:54.814Z,25.12
2016-06-09T02:18:54.816Z,25.15
2016-06-09T02:19:54.835Z,25.15
2016-06-09T02:20:54.541Z,25.09
2016-06-09T02:21:54.856Z,25.19
2016-06-09T02:22:54.875Z,25.14
2016-06-09T02:23:54.878Z,25.11
2016-06-09T02:24:54.897Z,25.17
2016-06-09T02:25:54.744Z,25.17
2016-06-09T02:26:54.903Z,25.14
2016-06-09T02:27:54.922Z,25.15
2016-06-09T02:28:54.926Z,25.09
2016-06-09T02:29:54.944Z,25.15
2016-06-09T02:30:54.947Z,25.14
2016-06-09T02:31:54.966Z,25.08
2016-06-09T02:32:54.985Z,25.23
2016-06-09T02:33:55.878Z,25.11
2016-06-09T02:34:54.944Z,25.24
2016-06-09T02:35:55.009Z,25.15
2016-06-09T02:36:55.028Z,25.17
2016-06-09T02:37:55.031Z,25.11
2016-06-09T02:38:55.050Z,25.15
2016-06-09T02:39:55.052Z,25.22
2016-06-09T02:40:55.055Z,25.17
2016-06-09T02:41:55.075Z,25.14
2016-06-09T02:42:55.078Z,25.19
2016-06-09T02:43:55.096Z,25.19
2016-06-09T02:44:55.115Z,25.19
2016-06-09T02:45:55.117Z,25.14
2016-06-09T02:46:55.137Z,25.12
2016-06-09T02:47:55.140Z,25.23
2016-06-09T02:48:55.017Z,25.14
2016-06-09T02:49:55.255Z,25.09
2016-06-09T02:50:55.180Z,25.17
2016-06-09T02:51:55.183Z,25.08
2016-06-09T02:52:55.202Z,25.12
2016-06-09T02:53:55.205Z,25.08
2016-06-09T02:54:55.223Z,25.09
2016-06-09T02:55:55.227Z,25.11
2016-06-09T02:56:55.245Z,25.11
2016-06-09T02:57:55.264Z,25.19
2016-06-09T02:58:55.252Z,25.09
2016-06-09T02:59:55.271Z,25.09
2016-06-09T03:00:55.288Z,25.11
2016-06-09T03:01:55.292Z,25.09
2016-06-09T03:02:55.311Z,25.19
2016-06-09T03:03:55.220Z,25.08
2016-06-09T03:04:55.520Z,25.08
2016-06-09T03:05:55.352Z,25.23
2016-06-09T03:06:55.354Z,25.11
2016-06-09T03:07:55.357Z,25.11
2016-06-09T03:08:55.377Z,25.07
2016-06-09T03:09:55.395Z,25.12
2016-06-09T03:10:55.397Z,25.08
2016-06-09T03:11:55.401Z,25.07
2016-06-09T03:12:55.420Z,25.08
2016-06-09T03:13:55.423Z,25.15
2016-06-09T03:14:55.441Z,25.05
2016-06-09T03:15:55.460Z,25.15
2016-06-09T03:16:55.463Z,25.22
2016-06-09T03:17:55.482Z,25.09
2016-06-09T03:18:55.485Z,25.09
2016-06-09T03:19:55.347Z,25.15
2016-06-09T03:20:55.507Z,25.12
2016-06-09T03:21:55.525Z,25.14
2016-06-09T03:22:55.528Z,25.08
2016-06-09T03:23:55.547Z,25.09
2016-06-09T03:24:55.565Z,25.14
2016-06-09T03:25:55.569Z,25.08
2016-06-09T03:26:55.572Z,25.11
2016-06-09T03:27:55.590Z,25.11
2016-06-09T03:28:55.594Z,25.11
2016-06-09T03:29:55.597Z,25.14
2016-06-09T03:30:55.616Z,25.15
2016-06-09T03:31:55.634Z,25.07
2016-06-09T03:32:55.638Z,25.11
2016-06-09T03:33:55.656Z,25.19
2016-06-09T03:34:56.503Z,25.15
2016-06-09T03:35:55.663Z,25.05
2016-06-09T03:36:55.682Z,25.14
2016-06-09T03:37:55.699Z,25.07
2016-06-09T03:38:55.703Z,25.14
2016-06-09T03:39:55.722Z,25.11
2016-06-09T03:40:55.725Z,25.08
2016-06-09T03:41:55.742Z,25.15
2016-06-09T03:42:55.746Z,25.08
2016-06-09T03:43:55.781Z,25.08
2016-06-09T03:44:55.768Z,25.14
2016-06-09T03:45:55.771Z,25.07
2016-06-09T03:46:55.790Z,25.09
2016-06-09T03:47:55.808Z,25.11
2016-06-09T03:48:56.593Z,25.08
2016-06-09T03:49:56.800Z,25.12
2016-06-09T03:50:55.833Z,25.19
2016-06-09T03:51:55.852Z,25.12
2016-06-09T03:52:55.856Z,25.14
2016-06-09T03:53:55.874Z,25.05
2016-06-09T03:54:55.876Z,25.11
2016-06-09T03:55:55.880Z,25.09
2016-06-09T03:56:55.899Z,25.07
2016-06-09T03:57:55.761Z,25.08
2016-06-09T03:58:55.920Z,25.11
2016-06-09T03:59:55.939Z,25.2
2016-06-09T04:00:55.942Z,25.09
2016-06-09T04:01:55.961Z,25.09
2016-06-09T04:02:55.965Z,25.19
2016-06-09T04:03:55.983Z,25.23
2016-06-09T04:04:56.501Z,25.09
2016-06-09T04:05:56.005Z,25.14
2016-06-09T04:06:56.008Z,25.15
2016-06-09T04:07:56.011Z,25.14
2016-06-09T04:08:56.044Z,25.17
2016-06-09T04:09:56.048Z,25.08
2016-06-09T04:10:56.067Z,25.17
2016-06-09T04:11:56.070Z,25.14
2016-06-09T04:12:56.073Z,25.15
2016-06-09T04:13:56.107Z,25.19
2016-06-09T04:14:56.094Z,25.2
2016-06-09T04:15:56.114Z,25.19
2016-06-09T04:16:56.133Z,25.22
2016-06-09T04:17:56.150Z,25.15
2016-06-09T04:18:56.138Z,25.2
2016-06-09T04:19:56.048Z,25.17
2016-06-09T04:20:56.160Z,25.08
2016-06-09T04:21:56.194Z,25.15
2016-06-09T04:22:56.182Z,25.22
2016-06-09T04:23:56.201Z,25.14
2016-06-09T04:24:56.219Z,25.19
2016-06-09T04:25:56.222Z,25.19
2016-06-09T04:26:56.241Z,25.19
2016-06-09T04:27:56.244Z,25.12
2016-06-09T04:28:56.247Z,25.11
2016-06-09T04:29:56.266Z,25.12
2016-06-09T04:30:56.269Z,25.08
2016-06-09T04:31:56.288Z,25.05
2016-06-09T04:32:56.290Z,25.14
2016-06-09T04:33:56.310Z,25.14
2016-06-09T04:34:56.656Z,25.12
2016-06-09T04:35:56.330Z,25.17
2016-06-09T04:36:56.506Z,25.19
2016-06-09T04:37:56.369Z,25.19
2016-06-09T04:38:56.372Z,25.12
2016-06-09T04:39:56.375Z,25.07
2016-06-09T04:40:56.409Z,25.09
2016-06-09T04:41:56.396Z,25.2
2016-06-09T04:42:56.399Z,25.08
2016-06-09T04:43:56.419Z,25.12
2016-06-09T04:44:56.436Z,25.09
2016-06-09T04:45:56.455Z,25.11
2016-06-09T04:46:56.459Z,25.14
2016-06-09T04:47:56.462Z,25.14
2016-06-09T04:48:56.464Z,25.09
2016-06-09T04:49:56.531Z,25.15
2016-06-09T04:50:56.346Z,25.2
2016-06-09T04:51:56.505Z,25.17
2016-06-09T04:52:56.524Z,25.22
2016-06-09T04:53:56.527Z,25.11
2016-06-09T04:54:56.546Z,25.14
2016-06-09T04:55:56.564Z,25.14
2016-06-09T04:56:56.567Z,25.14
2016-06-09T04:57:56.431Z,25.22
2016-06-09T04:58:56.590Z,25.14
2016-06-09T04:59:56.592Z,25.14
2016-06-09T05:00:56.611Z,25.14
2016-06-09T05:01:56.614Z,25.14
2016-06-09T05:02:56.633Z,25.11
2016-06-09T05:03:56.636Z,25.11
2016-06-09T05:04:56.779Z,25.14
2016-06-09T05:05:56.673Z,25.11
2016-06-09T05:06:56.676Z,25.15
2016-06-09T05:07:56.695Z,25.09
2016-06-09T05:08:56.699Z,25.14
2016-06-09T05:09:56.701Z,25.17
2016-06-09T05:10:56.720Z,25.11
2016-06-09T05:11:56.739Z,25.09
2016-06-09T05:12:56.742Z,25.14
2016-06-09T05:13:56.760Z,25.19
2016-06-09T05:14:56.623Z,25.15
2016-06-09T05:15:56.767Z,25.12
2016-06-09T05:16:56.785Z,25.2
2016-06-09T05:17:56.804Z,25.2
2016-06-09T05:18:56.651Z,25.19
2016-06-09T05:19:57.123Z,25.11
2016-06-09T05:20:56.829Z,25.14
2016-06-09T05:21:56.832Z,25.17
2016-06-09T05:22:56.850Z,25.23
2016-06-09T05:23:56.853Z,25.12
2016-06-09T05:24:56.872Z,25.08
2016-06-09T05:25:56.876Z,25.17
2016-06-09T05:26:56.910Z,25.17
2016-06-09T05:27:56.898Z,25.14
2016-06-09T05:28:56.915Z,25.15
2016-06-09T05:29:56.763Z,25.11
2016-06-09T05:30:56.938Z,25.11
2016-06-09T05:31:56.941Z,25.19
2016-06-09T05:32:56.975Z,25.19
2016-06-09T05:33:56.978Z,25.22
2016-06-09T05:34:56.840Z,25.17
2016-06-09T05:35:57.001Z,25.23
2016-06-09T05:36:57.050Z,25.14
2016-06-09T05:37:57.006Z,25.14
2016-06-09T05:38:56.868Z,25.2
2016-06-09T05:39:57.028Z,25.14
2016-06-09T05:40:57.047Z,25.19
2016-06-09T05:41:57.050Z,25.22
2016-06-09T05:42:57.084Z,25.12
2016-06-09T05:43:57.086Z,25.14
2016-06-09T05:44:57.090Z,25.2
2016-06-09T05:45:57.108Z,25.2
2016-06-09T05:46:57.127Z,25.08
2016-06-09T05:47:57.130Z,25.14
2016-06-09T05:48:57.133Z,25.12
2016-06-09T05:49:56.965Z,25.14
2016-06-09T05:50:57.155Z,25.2
2016-06-09T05:51:57.174Z,25.19
2016-06-09T05:52:57.177Z,25.15
2016-06-09T05:53:57.195Z,25.14
2016-06-09T05:54:57.199Z,25.14
2016-06-09T05:55:57.062Z,25.14
2016-06-09T05:56:57.220Z,25.17
2016-06-09T05:57:57.083Z,25.2
2016-06-09T05:58:57.274Z,25.19
2016-06-09T05:59:57.261Z,25.23
2016-06-09T06:00:57.295Z,25.12
2016-06-09T06:01:57.284Z,25.23
2016-06-09T06:02:57.286Z,25.15
2016-06-09T06:03:57.305Z,25.15
2016-06-09T06:04:57.807Z,25.17
2016-06-09T06:05:57.326Z,25.2
2016-06-09T06:06:57.329Z,25.22
2016-06-09T06:07:57.348Z,25.22
2016-06-09T06:08:57.351Z,25.19
2016-06-09T06:09:57.370Z,25.22
2016-06-09T06:10:57.373Z,25.15
2016-06-09T06:11:57.392Z,25.19
2016-06-09T06:12:57.395Z,25.2
2016-06-09T06:13:57.414Z,25.2
2016-06-09T06:14:57.417Z,25.22
2016-06-09T06:15:57.435Z,25.22
2016-06-09T06:16:57.454Z,25.2
2016-06-09T06:17:57.457Z,25.08
2016-06-09T06:18:57.476Z,25.08
2016-06-09T06:19:58.042Z,25.09
2016-06-09T06:20:57.482Z,25.09
2016-06-09T06:21:57.517Z,25.19
2016-06-09T06:22:57.520Z,25.11
2016-06-09T06:23:57.523Z,25.17
2016-06-09T06:24:57.541Z,25.17
2016-06-09T06:25:57.544Z,25.19
2016-06-09T06:26:57.407Z,25.24
2016-06-09T06:27:57.566Z,25.23
2016-06-09T06:28:57.569Z,25.23
2016-06-09T06:29:57.589Z,25.22
2016-06-09T06:30:57.450Z,25.17
2016-06-09T06:31:57.609Z,25.2
2016-06-09T06:32:57.612Z,25.2
2016-06-09T06:33:57.632Z,25.23
2016-06-09T06:34:57.868Z,25.22
2016-06-09T06:35:57.653Z,25.19
2016-06-09T06:36:57.703Z,25.19
2016-06-09T06:37:57.675Z,25.23
2016-06-09T06:38:57.694Z,25.24
2016-06-09T06:39:57.556Z,25.19
2016-06-09T06:40:57.700Z,25.3
2016-06-09T06:41:57.750Z,25.27
2016-06-09T06:42:57.737Z,25.23
2016-06-09T06:43:57.585Z,25.24
2016-06-09T06:44:57.759Z,25.26
2016-06-09T06:45:57.762Z,25.27
2016-06-09T06:46:57.765Z,25.26
2016-06-09T06:47:57.784Z,25.37
2016-06-09T06:48:57.803Z,25.27
2016-06-09T06:49:58.478Z,25.27
2016-06-09T06:50:57.824Z,25.37
2016-06-09T06:51:57.826Z,25.26
2016-06-09T06:52:57.846Z,25.33
2016-06-09T06:53:57.849Z,25.39
2016-06-09T06:54:57.868Z,25.3
2016-06-09T06:55:57.871Z,25.29
2016-06-09T06:56:57.889Z,25.38
2016-06-09T06:57:57.892Z,25.37
2016-06-09T06:58:57.912Z,25.3
2016-06-09T06:59:57.774Z,25.32
2016-06-09T07:00:57.792Z,25.34
2016-06-09T07:01:57.936Z,25.33
2016-06-09T07:02:57.955Z,25.38
2016-06-09T07:03:57.833Z,25.29
2016-06-09T07:04:58.038Z,25.3
2016-06-09T07:05:57.980Z,25.26
2016-06-09T07:06:57.998Z,25.33
2016-06-09T07:07:58.001Z,25.29
2016-06-09T07:08:58.020Z,25.32
2016-06-09T07:09:58.023Z,25.29
2016-06-09T07:10:58.043Z,25.3
2016-06-09T07:11:58.060Z,25.32
2016-06-09T07:12:58.063Z,25.11
2016-06-09T07:13:58.082Z,24.77
2016-06-09T07:14:58.086Z,24.61
2016-06-09T07:15:58.119Z,24.51
2016-06-09T07:16:58.108Z,24.33
2016-06-09T07:17:58.110Z,24.32
2016-06-09T07:18:58.129Z,24.22
2016-06-09T07:19:58.507Z,24.24
2016-06-09T07:20:58.307Z,24.24
2016-06-09T07:21:58.169Z,24.29
2016-06-09T07:22:58.188Z,24.22
2016-06-09T07:23:58.207Z,24.24
2016-06-09T07:24:58.178Z,24.3
2016-06-09T07:25:58.198Z,24.17
2016-06-09T07:26:58.060Z,24.21
2016-06-09T07:27:58.220Z,24.21
2016-06-09T07:28:58.222Z,24.11
2016-06-09T07:29:58.241Z,24.21
2016-06-09T07:30:58.260Z,24.26
2016-06-09T07:31:58.263Z,24.19
2016-06-09T07:32:58.266Z,24.27
2016-06-09T07:33:59.112Z,24.29
2016-06-09T07:34:58.491Z,24.24
2016-06-09T07:35:58.181Z,24.26
2016-06-09T07:36:58.309Z,24.22
2016-06-09T07:37:58.328Z,24.18
2016-06-09T07:38:58.331Z,24.26
2016-06-09T07:39:58.349Z,24.21
2016-06-09T07:40:58.352Z,24.26
2016-06-09T07:41:58.355Z,24.21
2016-06-09T07:42:58.375Z,24.19
2016-06-09T07:43:58.393Z,24.24
2016-06-09T07:44:58.397Z,24.26
2016-06-09T07:45:58.400Z,24.3
2016-06-09T07:46:58.418Z,24.34
2016-06-09T07:47:58.265Z,24.34
2016-06-09T07:48:58.424Z,24.54
2016-06-09T07:49:58.693Z,24.52
2016-06-09T07:50:59.055Z,24.67
2016-06-09T07:51:58.481Z,24.69
2016-06-09T07:52:58.483Z,24.74
2016-06-09T07:53:58.486Z,24.85
2016-06-09T07:54:58.333Z,24.87
2016-06-09T07:55:58.509Z,24.85
2016-06-09T07:56:58.527Z,24.96
2016-06-09T07:57:58.530Z,24.92
2016-06-09T07:58:58.532Z,25.04
2016-06-09T07:59:58.552Z,25.01
2016-06-09T08:00:58.571Z,25.05
2016-06-09T08:01:58.574Z,25.07
2016-06-09T08:02:58.592Z,25.09
2016-06-09T08:03:58.595Z,25.07
2016-06-09T08:04:58.614Z,25.09
2016-06-09T08:05:59.227Z,25.23
2016-06-09T08:06:58.651Z,25.17
2016-06-09T08:07:58.624Z,25.08
2016-06-09T08:08:58.658Z,25.14
2016-06-09T08:09:58.676Z,25.15
2016-06-09T08:10:58.664Z,25.19
2016-06-09T08:11:58.683Z,25.08
2016-06-09T08:12:58.700Z,24.96
2016-06-09T08:13:58.704Z,24.86
2016-06-09T08:14:58.706Z,24.7
2016-06-09T08:15:58.726Z,24.55
2016-06-09T08:16:58.729Z,24.58
2016-06-09T08:17:58.748Z,24.54
2016-06-09T08:18:58.766Z,24.4
2016-06-09T08:19:58.989Z,24.46
2016-06-09T08:20:58.897Z,24.55
2016-06-09T08:21:58.792Z,24.49
2016-06-09T08:22:58.810Z,24.44
2016-06-09T08:23:58.829Z,24.33
2016-06-09T08:24:58.834Z,24.3
2016-06-09T08:25:58.879Z,24.29
2016-06-09T08:26:58.941Z,24.21
2016-06-09T08:27:59.017Z,24.24
2016-06-09T08:28:59.048Z,24.27
2016-06-09T08:29:59.092Z,24.24
2016-06-09T08:30:59.110Z,24.27
2016-06-09T08:31:59.145Z,24.27
2016-06-09T08:32:59.163Z,24.17
2016-06-09T08:33:59.040Z,24.26
2016-06-09T08:34:59.262Z,24.32
2016-06-09T08:36:00.036Z,24.46
2016-06-09T08:36:59.248Z,24.52
2016-06-09T08:37:59.272Z,24.61
2016-06-09T08:38:59.811Z,24.75
2016-06-09T08:39:59.304Z,24.67
2016-06-09T08:40:59.152Z,24.71
2016-06-09T08:41:59.330Z,24.69
2016-06-09T08:42:59.335Z,24.86
2016-06-09T08:43:59.184Z,24.82
2016-06-09T08:44:59.360Z,24.85
2016-06-09T08:45:59.379Z,24.8
2016-06-09T08:46:59.399Z,24.77
2016-06-09T08:47:59.403Z,24.75
2016-06-09T08:48:59.407Z,24.85
2016-06-09T08:50:00.239Z,24.93
2016-06-09T08:50:59.492Z,24.89
2016-06-09T08:51:59.448Z,24.86
2016-06-09T08:52:59.452Z,24.92
2016-06-09T08:53:59.316Z,24.92
2016-06-09T08:54:59.475Z,24.92
2016-06-09T08:55:59.495Z,24.93
2016-06-09T08:56:59.512Z,24.97
2016-06-09T08:57:59.516Z,25.01
2016-06-09T08:58:59.535Z,24.96
2016-06-09T08:59:59.552Z,25.02
2016-06-09T09:00:59.540Z,25.02
2016-06-09T09:01:59.558Z,25.02
2016-06-09T09:02:59.561Z,25.01
2016-06-09T09:03:59.580Z,24.92
2016-06-09T09:05:00.459Z,25.05
2016-06-09T09:05:59.603Z,24.94
2016-06-09T09:06:59.621Z,24.96
2016-06-09T09:07:59.609Z,24.94
2016-06-09T09:08:59.627Z,24.92
2016-06-09T09:09:59.630Z,24.89
2016-06-09T09:10:59.650Z,24.94
2016-06-09T09:11:59.668Z,24.96
2016-06-09T09:12:59.672Z,24.92
2016-06-09T09:13:59.690Z,24.92
2016-06-09T09:14:59.709Z,25.01
2016-06-09T09:15:59.695Z,24.92
2016-06-09T09:16:59.715Z,25
2016-06-09T09:17:59.733Z,24.92
2016-06-09T09:18:59.736Z,24.93
2016-06-09T09:19:59.739Z,24.96
2016-06-09T09:21:00.555Z,24.89
2016-06-09T09:21:59.777Z,25.05
2016-06-09T09:22:59.780Z,24.9
2016-06-09T09:23:59.798Z,25.02
2016-06-09T09:24:59.801Z,25.02
2016-06-09T09:25:59.820Z,25.02
2016-06-09T09:26:59.823Z,25.04
2016-06-09T09:27:59.827Z,25.05
2016-06-09T09:28:59.845Z,25.02
2016-06-09T09:29:59.848Z,25.01
2016-06-09T09:30:59.867Z,25.04
2016-06-09T09:31:59.885Z,25.08
2016-06-09T09:32:59.888Z,25.02
2016-06-09T09:33:59.907Z,25.07
2016-06-09T09:34:59.910Z,25.08
2016-06-09T09:36:00.038Z,25.09
2016-06-09T09:36:59.932Z,25.02
2016-06-09T09:37:59.952Z,25.04
2016-06-09T09:38:59.954Z,25.12
2016-06-09T09:39:59.957Z,25.11
2016-06-09T09:40:59.975Z,25.02
2016-06-09T09:41:59.995Z,25.12
2016-06-09T09:42:59.997Z,25.09
2016-06-09T09:44:00.001Z,25.08
2016-06-09T09:45:00.020Z,25.08
2016-06-09T09:46:00.023Z,25.08
2016-06-09T09:47:00.041Z,25.11
2016-06-09T09:48:00.059Z,25.09
2016-06-09T09:49:00.063Z,25.05
2016-06-09T09:50:00.066Z,25.07
2016-06-09T09:51:00.585Z,25.17
2016-06-09T09:52:00.104Z,25.09
2016-06-09T09:53:00.106Z,25.11
2016-06-09T09:54:00.125Z,25.09
2016-06-09T09:55:00.129Z,25.14
2016-06-09T09:56:00.132Z,25.12
2016-06-09T09:57:00.149Z,25.12
2016-06-09T09:58:00.169Z,25.2
2016-06-09T09:59:00.187Z,25.19
2016-06-09T10:00:00.191Z,25.2
2016-06-09T10:01:00.194Z,25.19
2016-06-09T10:02:00.056Z,25.11
2016-06-09T10:03:00.231Z,25.09
2016-06-09T10:04:00.234Z,25.11
2016-06-09T10:05:00.237Z,25.05
2016-06-09T10:06:00.271Z,25.07
2016-06-09T10:07:00.258Z,25.08
2016-06-09T10:08:00.277Z,25.08
2016-06-09T10:09:00.281Z,25.05
2016-06-09T10:10:00.299Z,25.08
2016-06-09T10:11:00.303Z,25.07
2016-06-09T10:12:00.321Z,25.19
2016-06-09T10:13:00.324Z,25.12
2016-06-09T10:14:00.343Z,25.05
2016-06-09T10:15:00.362Z,25.17
2016-06-09T10:16:00.365Z,25.17
2016-06-09T10:17:00.383Z,25.15
2016-06-09T10:18:00.386Z,25.19
2016-06-09T10:19:00.405Z,25.15
2016-06-09T10:20:00.408Z,25.19
2016-06-09T10:21:00.818Z,25.08
2016-06-09T10:22:00.273Z,25.08
2016-06-09T10:23:00.277Z,25.12
2016-06-09T10:24:00.311Z,25.15
2016-06-09T10:25:00.454Z,25.15
2016-06-09T10:26:00.473Z,25.12
2016-06-09T10:27:00.336Z,25.17
2016-06-09T10:28:00.495Z,25.22
2016-06-09T10:29:00.514Z,25.17
2016-06-09T10:30:00.517Z,25.19
2016-06-09T10:31:00.537Z,25.2
2016-06-09T10:32:00.554Z,25.17
2016-06-09T10:33:00.557Z,25.22
2016-06-09T10:34:00.560Z,25.32
2016-06-09T10:35:00.579Z,25.22
2016-06-09T10:36:00.817Z,25.09
2016-06-09T10:37:00.600Z,25.2
2016-06-09T10:38:00.619Z,25.15
2016-06-09T10:39:00.622Z,25.15
2016-06-09T10:40:00.642Z,25.15
2016-06-09T10:41:00.629Z,25.17
2016-06-09T10:42:00.648Z,25.14
2016-06-09T10:43:00.666Z,25.2
2016-06-09T10:44:00.669Z,25.23
2016-06-09T10:45:00.704Z,25.26
2016-06-09T10:46:00.708Z,25.37
2016-06-09T10:47:00.710Z,25.26
2016-06-09T10:48:00.713Z,25.3
2016-06-09T10:49:00.888Z,25.27
2016-06-09T10:50:00.734Z,25.33
2016-06-09T10:51:00.754Z,25.34
2016-06-09T10:52:00.507Z,25.3
2016-06-09T10:53:00.775Z,25.33
2016-06-09T10:54:00.778Z,25.34
2016-06-09T10:55:00.812Z,25.34
2016-06-09T10:56:00.816Z,25.37
2016-06-09T10:57:00.819Z,25.39
2016-06-09T10:58:00.822Z,25.38
2016-06-09T10:59:00.840Z,25.39
2016-06-09T11:00:00.860Z,25.44
2016-06-09T11:01:00.862Z,25.44
2016-06-09T11:02:06.882Z,25.44
2016-06-09T11:03:00.884Z,25.38
2016-06-09T11:04:00.888Z,25.41
2016-06-09T11:05:00.922Z,25.45
2016-06-09T11:06:00.924Z,25.45
2016-06-09T11:07:01.662Z,25.44
2016-06-09T11:08:00.946Z,25.47
2016-06-09T11:09:00.949Z,25.45
2016-06-09T11:10:00.827Z,25.56
2016-06-09T11:11:00.987Z,25.47
2016-06-09T11:12:00.990Z,25.42
2016-06-09T11:13:01.008Z,25.54
2016-06-09T11:14:01.011Z,25.6
2016-06-09T11:15:01.030Z,25.54
2016-06-09T11:16:01.033Z,25.47
2016-06-09T11:17:01.036Z,25.57
2016-06-09T11:18:01.055Z,25.44
2016-06-09T11:19:01.074Z,25.51
2016-06-09T11:20:01.076Z,25.48
2016-06-09T11:21:01.236Z,25.54
2016-06-09T11:22:01.771Z,25.57
2016-06-09T11:23:00.946Z,25.54
2016-06-09T11:24:17.402Z,25.57
2016-06-09T11:25:01.123Z,25.49
2016-06-09T11:26:01.142Z,25.57
2016-06-09T11:27:01.145Z,25.6
2016-06-09T11:28:01.165Z,25.63
2016-06-09T11:29:01.167Z,25.64
2016-06-09T11:30:01.186Z,25.66
2016-06-09T11:31:01.188Z,25.64
2016-06-09T11:32:01.223Z,25.7
2016-06-09T11:33:01.242Z,25.69
2016-06-09T11:34:01.245Z,25.69
2016-06-09T11:35:01.232Z,25.69
2016-06-09T11:36:01.251Z,25.76
2016-06-09T11:37:01.129Z,25.74
2016-06-09T11:38:01.273Z,25.63
2016-06-09T11:39:01.276Z,25.76
2016-06-09T11:40:01.294Z,25.74
2016-06-09T11:41:01.314Z,25.67
2016-06-09T11:42:01.332Z,25.66
2016-06-09T11:43:01.336Z,25.74
2016-06-09T11:44:01.354Z,25.71
2016-06-09T11:45:01.357Z,25.66
2016-06-09T11:46:01.360Z,25.69
2016-06-09T11:47:01.363Z,25.64
2016-06-09T11:48:01.398Z,25.67
2016-06-09T11:49:01.400Z,25.67
2016-06-09T11:50:01.404Z,25.74
2016-06-09T11:51:02.063Z,25.74
2016-06-09T11:52:01.972Z,25.67
2016-06-09T11:53:01.444Z,25.67
2016-06-09T11:54:01.448Z,25.71
2016-06-09T11:55:01.465Z,25.67
2016-06-09T11:56:01.469Z,25.71
2016-06-09T11:57:01.471Z,25.69
2016-06-09T11:58:01.507Z,25.71
2016-06-09T11:59:01.510Z,25.66
2016-06-09T12:00:01.512Z,25.64
2016-06-09T12:01:01.531Z,25.74
2016-06-09T12:02:01.550Z,25.75
2016-06-09T12:03:01.397Z,25.67
2016-06-09T12:04:01.572Z,25.63
2016-06-09T12:05:01.575Z,25.66
2016-06-09T12:06:01.593Z,25.52
2016-06-09T12:07:01.612Z,25.64
2016-06-09T12:08:01.615Z,25.54
2016-06-09T12:09:01.618Z,25.49
2016-06-09T12:10:01.636Z,25.54
2016-06-09T12:11:01.656Z,25.54
2016-06-09T12:12:01.658Z,25.56
2016-06-09T12:13:01.661Z,25.57
2016-06-09T12:14:01.680Z,25.63
2016-06-09T12:15:01.699Z,25.63
2016-06-09T12:16:01.702Z,25.71
2016-06-09T12:17:01.705Z,25.63
2016-06-09T12:18:01.724Z,25.71
2016-06-09T12:19:01.743Z,25.74
2016-06-09T12:20:01.761Z,25.74
2016-06-09T12:21:03.061Z,25.69
2016-06-09T12:22:02.330Z,25.74
2016-06-09T12:23:01.786Z,25.64
2016-06-09T12:24:01.790Z,25.66
2016-06-09T12:25:01.792Z,25.74
2016-06-09T12:26:01.811Z,25.78
2016-06-09T12:27:01.830Z,25.74
2016-06-09T12:28:01.848Z,25.69
2016-06-09T12:29:01.852Z,25.76
2016-06-09T12:30:01.855Z,25.74
2016-06-09T12:31:01.873Z,25.7
2016-06-09T12:32:01.876Z,25.71
2016-06-09T12:33:01.895Z,25.63
2016-06-09T12:34:01.914Z,25.7
2016-06-09T12:35:01.932Z,25.79
2016-06-09T12:36:01.796Z,25.74
2016-06-09T12:37:02.533Z,25.84
2016-06-09T12:38:01.958Z,25.82
2016-06-09T12:39:01.975Z,25.85
2016-06-09T12:40:01.978Z,25.86
2016-06-09T12:41:01.982Z,25.82
2016-06-09T12:42:02.001Z,25.91
2016-06-09T12:43:02.020Z,25.94
2016-06-09T12:44:01.866Z,25.91
2016-06-09T12:45:02.041Z,25.96
2016-06-09T12:46:02.044Z,26.01
2016-06-09T12:47:02.063Z,25.94
2016-06-09T12:48:02.082Z,25.91
2016-06-09T12:49:02.085Z,25.93
2016-06-09T12:50:02.089Z,26
2016-06-09T12:51:02.592Z,25.99
2016-06-09T12:52:02.453Z,25.96
2016-06-09T12:53:02.128Z,26.01
2016-06-09T12:54:02.131Z,26.03
2016-06-09T12:55:02.150Z,26.04